sensor_id;sensor_type;location;lat;lon;timestamp;P1;durP1;ratioP1;P2;durP2;ratioP2
19149;SDS011;9707;49.158;8.632;2022-08-07T00:00:27;1.65;;;0.30;;
19149;SDS011;9707;49.158;8.632;2022-08-07T00:02:52;0.40;;;0.20;;
19149;SDS011;9707;49.158;8.632;2022-08-07T00:05:20;1.75;;;0.40;;
19149;SDS011;9707;49.158;8.632;2022-08-07T00:07:46;0.70;;;0.30;;
19149;SDS011;9707;49.158;8.632;2022-08-07T00:10:12;1.45;;;0.45;;
19149;SDS011;9707;49.158;8.632;2022-08-07T00:12:37;0.43;;;0.30;;
19149;SDS011;9707;49.158;8.632;2022-08-07T00:15:03;0.65;;;0.40;;
19149;SDS011;9707;49.158;8.632;2022-08-07T00:17:29;0.95;;;0.43;;
19149;SDS011;9707;49.158;8.632;2022-08-07T00:19:55;1.88;;;0.40;;
19149;SDS011;9707;49.158;8.632;2022-08-07T00:22:20;0.95;;;0.45;;
19149;SDS011;9707;49.158;8.632;2022-08-07T00:24:45;0.60;;;0.40;;
19149;SDS011;9707;49.158;8.632;2022-08-07T00:27:11;1.60;;;0.40;;
19149;SDS011;9707;49.158;8.632;2022-08-07T00:29:36;0.57;;;0.30;;
19149;SDS011;9707;49.158;8.632;2022-08-07T00:32:01;0.55;;;0.30;;
19149;SDS011;9707;49.158;8.632;2022-08-07T00:34:27;0.45;;;0.40;;
19149;SDS011;9707;49.158;8.632;2022-08-07T00:36:54;1.00;;;0.50;;
19149;SDS011;9707;49.158;8.632;2022-08-07T00:39:20;1.38;;;0.30;;
19149;SDS011;9707;49.158;8.632;2022-08-07T00:41:52;4.25;;;0.77;;
19149;SDS011;9707;49.158;8.632;2022-08-07T00:44:20;1.50;;;0.77;;
19149;SDS011;9707;49.158;8.632;2022-08-07T00:46:45;1.08;;;0.20;;
19149;SDS011;9707;49.158;8.632;2022-08-07T00:49:11;1.58;;;0.52;;
19149;SDS011;9707;49.158;8.632;2022-08-07T00:51:37;0.47;;;0.40;;
19149;SDS011;9707;49.158;8.632;2022-08-07T00:54:02;0.57;;;0.20;;
19149;SDS011;9707;49.158;8.632;2022-08-07T00:56:28;1.48;;;0.40;;
19149;SDS011;9707;49.158;8.632;2022-08-07T00:58:54;0.70;;;0.28;;
19149;SDS011;9707;49.158;8.632;2022-08-07T01:04:42;1.55;;;0.47;;
19149;SDS011;9707;49.158;8.632;2022-08-07T01:10:29;1.58;;;0.40;;
19149;SDS011;9707;49.158;8.632;2022-08-07T01:12:54;0.70;;;0.40;;
19149;SDS011;9707;49.158;8.632;2022-08-07T01:15:21;1.75;;;0.60;;
19149;SDS011;9707;49.158;8.632;2022-08-07T01:17:47;0.60;;;0.40;;
19149;SDS011;9707;49.158;8.632;2022-08-07T01:20:13;1.25;;;0.47;;
19149;SDS011;9707;49.158;8.632;2022-08-07T01:22:40;1.50;;;0.40;;
19149;SDS011;9707;49.158;8.632;2022-08-07T01:25:06;0.88;;;0.38;;
19149;SDS011;9707;49.158;8.632;2022-08-07T01:27:34;1.75;;;0.70;;
19149;SDS011;9707;49.158;8.632;2022-08-07T01:30:00;3.40;;;0.50;;
19149;SDS011;9707;49.158;8.632;2022-08-07T01:32:26;1.30;;;0.43;;
19149;SDS011;9707;49.158;8.632;2022-08-07T01:34:51;9.05;;;1.10;;
19149;SDS011;9707;49.158;8.632;2022-08-07T01:37:18;1.30;;;0.43;;
19149;SDS011;9707;49.158;8.632;2022-08-07T01:39:44;0.95;;;0.50;;
19149;SDS011;9707;49.158;8.632;2022-08-07T01:42:11;1.45;;;0.50;;
19149;SDS011;9707;49.158;8.632;2022-08-07T01:44:37;0.60;;;0.20;;
19149;SDS011;9707;49.158;8.632;2022-08-07T01:47:02;0.75;;;0.50;;
19149;SDS011;9707;49.158;8.632;2022-08-07T01:49:28;1.33;;;0.47;;
19149;SDS011;9707;49.158;8.632;2022-08-07T01:51:54;1.38;;;0.40;;
19149;SDS011;9707;49.158;8.632;2022-08-07T01:54:20;1.05;;;0.55;;
19149;SDS011;9707;49.158;8.632;2022-08-07T01:56:50;2.05;;;0.50;;
19149;SDS011;9707;49.158;8.632;2022-08-07T02:01:57;1.67;;;0.47;;
19149;SDS011;9707;49.158;8.632;2022-08-07T02:04:31;1.08;;;0.40;;
19149;SDS011;9707;49.158;8.632;2022-08-07T02:07:05;2.78;;;0.60;;
19149;SDS011;9707;49.158;8.632;2022-08-07T02:09:33;1.88;;;0.60;;
19149;SDS011;9707;49.158;8.632;2022-08-07T02:11:58;1.05;;;0.50;;
19149;SDS011;9707;49.158;8.632;2022-08-07T02:14:41;0.60;;;0.45;;
19149;SDS011;9707;49.158;8.632;2022-08-07T02:17:09;2.67;;;0.57;;
19149;SDS011;9707;49.158;8.632;2022-08-07T02:19:39;0.90;;;0.35;;
19149;SDS011;9707;49.158;8.632;2022-08-07T02:22:08;3.35;;;0.40;;
19149;SDS011;9707;49.158;8.632;2022-08-07T02:24:36;1.10;;;0.65;;
19149;SDS011;9707;49.158;8.632;2022-08-07T02:27:03;0.63;;;0.32;;
19149;SDS011;9707;49.158;8.632;2022-08-07T02:29:30;0.63;;;0.40;;
19149;SDS011;9707;49.158;8.632;2022-08-07T02:31:57;1.08;;;0.40;;
19149;SDS011;9707;49.158;8.632;2022-08-07T02:34:24;0.60;;;0.30;;
19149;SDS011;9707;49.158;8.632;2022-08-07T02:36:49;3.33;;;0.55;;
19149;SDS011;9707;49.158;8.632;2022-08-07T02:39:15;1.77;;;0.50;;
19149;SDS011;9707;49.158;8.632;2022-08-07T02:41:41;2.00;;;0.70;;
19149;SDS011;9707;49.158;8.632;2022-08-07T02:44:08;1.50;;;0.45;;
19149;SDS011;9707;49.158;8.632;2022-08-07T02:46:35;2.40;;;0.50;;
19149;SDS011;9707;49.158;8.632;2022-08-07T02:49:02;0.70;;;0.50;;
19149;SDS011;9707;49.158;8.632;2022-08-07T02:51:29;1.35;;;0.47;;
19149;SDS011;9707;49.158;8.632;2022-08-07T02:53:58;0.55;;;0.45;;
19149;SDS011;9707;49.158;8.632;2022-08-07T02:56:25;0.70;;;0.40;;
19149;SDS011;9707;49.158;8.632;2022-08-07T02:58:54;3.05;;;0.50;;
19149;SDS011;9707;49.158;8.632;2022-08-07T03:01:24;1.63;;;0.50;;
19149;SDS011;9707;49.158;8.632;2022-08-07T03:03:51;0.30;;;0.25;;
19149;SDS011;9707;49.158;8.632;2022-08-07T03:06:17;0.45;;;0.30;;
19149;SDS011;9707;49.158;8.632;2022-08-07T03:08:44;0.57;;;0.38;;
19149;SDS011;9707;49.158;8.632;2022-08-07T03:11:10;0.75;;;0.38;;
19149;SDS011;9707;49.158;8.632;2022-08-07T03:13:35;1.55;;;0.40;;
19149;SDS011;9707;49.158;8.632;2022-08-07T03:16:01;0.63;;;0.40;;
19149;SDS011;9707;49.158;8.632;2022-08-07T03:18:26;0.45;;;0.40;;
19149;SDS011;9707;49.158;8.632;2022-08-07T03:20:53;0.45;;;0.30;;
19149;SDS011;9707;49.158;8.632;2022-08-07T03:23:19;0.52;;;0.43;;
19149;SDS011;9707;49.158;8.632;2022-08-07T03:25:45;0.63;;;0.30;;
19149;SDS011;9707;49.158;8.632;2022-08-07T03:28:11;0.77;;;0.30;;
19149;SDS011;9707;49.158;8.632;2022-08-07T03:30:40;1.10;;;0.40;;
19149;SDS011;9707;49.158;8.632;2022-08-07T03:33:07;1.40;;;0.47;;
19149;SDS011;9707;49.158;8.632;2022-08-07T03:35:34;0.63;;;0.50;;
19149;SDS011;9707;49.158;8.632;2022-08-07T03:38:01;0.80;;;0.32;;
19149;SDS011;9707;49.158;8.632;2022-08-07T03:40:28;0.70;;;0.28;;
19149;SDS011;9707;49.158;8.632;2022-08-07T03:42:54;1.27;;;0.43;;
19149;SDS011;9707;49.158;8.632;2022-08-07T03:45:20;1.98;;;0.20;;
19149;SDS011;9707;49.158;8.632;2022-08-07T03:47:47;1.42;;;0.30;;
19149;SDS011;9707;49.158;8.632;2022-08-07T03:50:13;3.53;;;0.40;;
19149;SDS011;9707;49.158;8.632;2022-08-07T03:52:41;0.40;;;0.30;;
19149;SDS011;9707;49.158;8.632;2022-08-07T03:55:08;1.50;;;0.40;;
19149;SDS011;9707;49.158;8.632;2022-08-07T03:57:34;2.25;;;0.40;;
19149;SDS011;9707;49.158;8.632;2022-08-07T04:00:00;0.82;;;0.40;;
19149;SDS011;9707;49.158;8.632;2022-08-07T04:02:26;2.60;;;0.45;;
19149;SDS011;9707;49.158;8.632;2022-08-07T04:04:52;1.58;;;0.40;;
19149;SDS011;9707;49.158;8.632;2022-08-07T04:07:17;0.63;;;0.47;;
19149;SDS011;9707;49.158;8.632;2022-08-07T04:09:46;1.20;;;0.55;;
19149;SDS011;9707;49.158;8.632;2022-08-07T04:12:13;0.80;;;0.30;;
19149;SDS011;9707;49.158;8.632;2022-08-07T04:14:39;0.73;;;0.32;;
19149;SDS011;9707;49.158;8.632;2022-08-07T04:17:06;2.20;;;0.50;;
19149;SDS011;9707;49.158;8.632;2022-08-07T04:19:31;0.85;;;0.35;;
19149;SDS011;9707;49.158;8.632;2022-08-07T04:21:57;2.72;;;0.40;;
19149;SDS011;9707;49.158;8.632;2022-08-07T04:24:22;0.82;;;0.30;;
19149;SDS011;9707;49.158;8.632;2022-08-07T04:26:48;0.93;;;0.30;;
19149;SDS011;9707;49.158;8.632;2022-08-07T04:29:13;0.80;;;0.38;;
19149;SDS011;9707;49.158;8.632;2022-08-07T04:31:39;0.30;;;0.20;;
19149;SDS011;9707;49.158;8.632;2022-08-07T04:34:05;0.90;;;0.57;;
19149;SDS011;9707;49.158;8.632;2022-08-07T04:36:31;1.17;;;0.30;;
19149;SDS011;9707;49.158;8.632;2022-08-07T04:38:58;1.23;;;0.30;;
19149;SDS011;9707;49.158;8.632;2022-08-07T04:41:24;1.25;;;0.40;;
19149;SDS011;9707;49.158;8.632;2022-08-07T04:43:49;2.08;;;0.30;;
19149;SDS011;9707;49.158;8.632;2022-08-07T04:51:59;0.60;;;0.30;;
19149;SDS011;9707;49.158;8.632;2022-08-07T04:54:39;4.35;;;0.98;;
19149;SDS011;9707;49.158;8.632;2022-08-07T04:57:23;2.42;;;0.38;;
19149;SDS011;9707;49.158;8.632;2022-08-07T05:02:32;8.40;;;1.45;;
19149;SDS011;9707;49.158;8.632;2022-08-07T05:07:33;3.22;;;0.40;;
19149;SDS011;9707;49.158;8.632;2022-08-07T05:10:11;2.10;;;0.30;;
19149;SDS011;9707;49.158;8.632;2022-08-07T05:12:50;0.60;;;0.40;;
19149;SDS011;9707;49.158;8.632;2022-08-07T05:15:20;1.30;;;0.43;;
19149;SDS011;9707;49.158;8.632;2022-08-07T05:17:54;0.52;;;0.50;;
19149;SDS011;9707;49.158;8.632;2022-08-07T05:20:26;0.60;;;0.40;;
19149;SDS011;9707;49.158;8.632;2022-08-07T05:22:58;0.60;;;0.30;;
19149;SDS011;9707;49.158;8.632;2022-08-07T05:25:29;0.45;;;0.30;;
19149;SDS011;9707;49.158;8.632;2022-08-07T05:27:57;0.68;;;0.20;;
19149;SDS011;9707;49.158;8.632;2022-08-07T05:30:23;0.30;;;0.30;;
19149;SDS011;9707;49.158;8.632;2022-08-07T05:32:50;1.75;;;0.43;;
19149;SDS011;9707;49.158;8.632;2022-08-07T05:35:18;0.80;;;0.30;;
19149;SDS011;9707;49.158;8.632;2022-08-07T05:37:45;0.65;;;0.40;;
19149;SDS011;9707;49.158;8.632;2022-08-07T05:40:11;0.35;;;0.25;;
19149;SDS011;9707;49.158;8.632;2022-08-07T05:42:37;1.17;;;0.30;;
19149;SDS011;9707;49.158;8.632;2022-08-07T05:45:06;0.70;;;0.40;;
19149;SDS011;9707;49.158;8.632;2022-08-07T05:47:32;0.63;;;0.40;;
19149;SDS011;9707;49.158;8.632;2022-08-07T05:49:58;1.40;;;0.22;;
19149;SDS011;9707;49.158;8.632;2022-08-07T05:52:25;1.02;;;0.30;;
19149;SDS011;9707;49.158;8.632;2022-08-07T05:54:51;0.55;;;0.30;;
19149;SDS011;9707;49.158;8.632;2022-08-07T05:57:16;1.10;;;0.32;;
19149;SDS011;9707;49.158;8.632;2022-08-07T05:59:42;1.65;;;0.43;;
19149;SDS011;9707;49.158;8.632;2022-08-07T06:02:12;0.60;;;0.40;;
19149;SDS011;9707;49.158;8.632;2022-08-07T06:04:41;1.20;;;0.40;;
19149;SDS011;9707;49.158;8.632;2022-08-07T06:07:12;1.20;;;0.43;;
19149;SDS011;9707;49.158;8.632;2022-08-07T06:09:38;0.68;;;0.30;;
19149;SDS011;9707;49.158;8.632;2022-08-07T06:12:04;0.82;;;0.50;;
19149;SDS011;9707;49.158;8.632;2022-08-07T06:14:31;0.95;;;0.50;;
19149;SDS011;9707;49.158;8.632;2022-08-07T06:16:57;0.98;;;0.40;;
19149;SDS011;9707;49.158;8.632;2022-08-07T06:19:22;1.60;;;0.50;;
19149;SDS011;9707;49.158;8.632;2022-08-07T06:21:50;1.75;;;0.50;;
19149;SDS011;9707;49.158;8.632;2022-08-07T06:24:17;0.98;;;0.70;;
19149;SDS011;9707;49.158;8.632;2022-08-07T06:26:42;0.40;;;0.40;;
19149;SDS011;9707;49.158;8.632;2022-08-07T06:29:08;1.45;;;0.40;;
19149;SDS011;9707;49.158;8.632;2022-08-07T06:31:34;0.70;;;0.30;;
19149;SDS011;9707;49.158;8.632;2022-08-07T06:33:59;2.85;;;0.70;;
19149;SDS011;9707;49.158;8.632;2022-08-07T06:36:25;3.38;;;1.25;;
19149;SDS011;9707;49.158;8.632;2022-08-07T06:38:51;1.40;;;0.65;;
19149;SDS011;9707;49.158;8.632;2022-08-07T06:41:19;1.00;;;0.73;;
19149;SDS011;9707;49.158;8.632;2022-08-07T06:43:48;0.80;;;0.60;;
19149;SDS011;9707;49.158;8.632;2022-08-07T06:46:15;0.95;;;0.50;;
19149;SDS011;9707;49.158;8.632;2022-08-07T06:48:41;5.07;;;1.00;;
19149;SDS011;9707;49.158;8.632;2022-08-07T06:51:08;1.95;;;0.50;;
19149;SDS011;9707;49.158;8.632;2022-08-07T06:53:35;0.90;;;0.50;;
19149;SDS011;9707;49.158;8.632;2022-08-07T06:56:04;1.40;;;0.85;;
19149;SDS011;9707;49.158;8.632;2022-08-07T06:58:32;1.63;;;0.82;;
19149;SDS011;9707;49.158;8.632;2022-08-07T07:00:59;2.28;;;0.80;;
19149;SDS011;9707;49.158;8.632;2022-08-07T07:03:26;1.90;;;0.70;;
19149;SDS011;9707;49.158;8.632;2022-08-07T07:05:52;5.65;;;0.90;;
19149;SDS011;9707;49.158;8.632;2022-08-07T07:08:18;0.95;;;0.80;;
19149;SDS011;9707;49.158;8.632;2022-08-07T07:10:49;1.95;;;1.00;;
19149;SDS011;9707;49.158;8.632;2022-08-07T07:13:18;1.65;;;1.08;;
19149;SDS011;9707;49.158;8.632;2022-08-07T07:15:51;1.65;;;0.82;;
19149;SDS011;9707;49.158;8.632;2022-08-07T07:18:22;1.58;;;1.05;;
19149;SDS011;9707;49.158;8.632;2022-08-07T07:21:10;1.52;;;1.00;;
19149;SDS011;9707;49.158;8.632;2022-08-07T07:23:41;2.28;;;0.88;;
19149;SDS011;9707;49.158;8.632;2022-08-07T07:26:08;1.58;;;0.88;;
19149;SDS011;9707;49.158;8.632;2022-08-07T07:28:38;1.92;;;0.90;;
19149;SDS011;9707;49.158;8.632;2022-08-07T07:31:11;2.78;;;1.10;;
19149;SDS011;9707;49.158;8.632;2022-08-07T07:33:43;1.70;;;1.35;;
19149;SDS011;9707;49.158;8.632;2022-08-07T07:36:10;1.02;;;0.93;;
19149;SDS011;9707;49.158;8.632;2022-08-07T07:38:36;1.38;;;0.98;;
19149;SDS011;9707;49.158;8.632;2022-08-07T07:41:04;2.35;;;1.13;;
19149;SDS011;9707;49.158;8.632;2022-08-07T07:43:32;2.60;;;1.00;;
19149;SDS011;9707;49.158;8.632;2022-08-07T07:45:59;1.95;;;1.20;;
19149;SDS011;9707;49.158;8.632;2022-08-07T07:48:26;1.65;;;1.00;;
19149;SDS011;9707;49.158;8.632;2022-08-07T07:50:53;1.75;;;1.20;;
19149;SDS011;9707;49.158;8.632;2022-08-07T07:53:20;2.45;;;1.10;;
19149;SDS011;9707;49.158;8.632;2022-08-07T07:55:48;2.03;;;1.20;;
19149;SDS011;9707;49.158;8.632;2022-08-07T07:58:16;4.32;;;1.40;;
19149;SDS011;9707;49.158;8.632;2022-08-07T08:00:43;1.45;;;1.30;;
19149;SDS011;9707;49.158;8.632;2022-08-07T08:03:10;1.95;;;1.40;;
19149;SDS011;9707;49.158;8.632;2022-08-07T08:05:40;2.05;;;1.23;;
19149;SDS011;9707;49.158;8.632;2022-08-07T08:08:06;1.85;;;0.93;;
19149;SDS011;9707;49.158;8.632;2022-08-07T08:10:34;2.42;;;1.50;;
19149;SDS011;9707;49.158;8.632;2022-08-07T08:13:00;1.60;;;1.45;;
19149;SDS011;9707;49.158;8.632;2022-08-07T08:15:27;3.88;;;1.42;;
19149;SDS011;9707;49.158;8.632;2022-08-07T08:17:55;2.78;;;1.65;;
19149;SDS011;9707;49.158;8.632;2022-08-07T08:20:23;5.07;;;1.63;;
19149;SDS011;9707;49.158;8.632;2022-08-07T08:22:50;2.10;;;1.15;;
19149;SDS011;9707;49.158;8.632;2022-08-07T08:25:37;2.42;;;1.20;;
19149;SDS011;9707;49.158;8.632;2022-08-07T08:28:23;2.33;;;1.25;;
19149;SDS011;9707;49.158;8.632;2022-08-07T08:30:55;1.98;;;1.40;;
19149;SDS011;9707;49.158;8.632;2022-08-07T08:33:23;2.40;;;1.45;;
19149;SDS011;9707;49.158;8.632;2022-08-07T08:35:51;2.00;;;1.27;;
19149;SDS011;9707;49.158;8.632;2022-08-07T08:38:21;2.08;;;1.40;;
19149;SDS011;9707;49.158;8.632;2022-08-07T08:40:55;5.38;;;1.70;;
19149;SDS011;9707;49.158;8.632;2022-08-07T08:45:54;2.53;;;1.70;;
19149;SDS011;9707;49.158;8.632;2022-08-07T08:48:34;2.20;;;1.50;;
19149;SDS011;9707;49.158;8.632;2022-08-07T08:51:10;3.20;;;1.30;;
19149;SDS011;9707;49.158;8.632;2022-08-07T08:56:35;1.63;;;1.08;;
19149;SDS011;9707;49.158;8.632;2022-08-07T08:59:13;3.08;;;1.00;;
19149;SDS011;9707;49.158;8.632;2022-08-07T09:07:31;1.70;;;1.08;;
19149;SDS011;9707;49.158;8.632;2022-08-07T09:10:28;1.38;;;1.27;;
19149;SDS011;9707;49.158;8.632;2022-08-07T09:16:33;1.30;;;0.85;;
19149;SDS011;9707;49.158;8.632;2022-08-07T09:25:27;1.60;;;0.70;;
19149;SDS011;9707;49.158;8.632;2022-08-07T09:30:36;2.15;;;0.80;;
19149;SDS011;9707;49.158;8.632;2022-08-07T09:36:33;0.90;;;0.60;;
19149;SDS011;9707;49.158;8.632;2022-08-07T09:44:40;1.75;;;0.70;;
19149;SDS011;9707;49.158;8.632;2022-08-07T09:52:34;1.20;;;0.70;;
19149;SDS011;9707;49.158;8.632;2022-08-07T09:55:12;1.13;;;0.75;;
19149;SDS011;9707;49.158;8.632;2022-08-07T10:00:28;0.90;;;0.50;;
19149;SDS011;9707;49.158;8.632;2022-08-07T10:18:05;2.95;;;0.50;;
19149;SDS011;9707;49.158;8.632;2022-08-07T10:25:59;1.00;;;0.40;;
19149;SDS011;9707;49.158;8.632;2022-08-07T10:36:57;2.20;;;0.50;;
19149;SDS011;9707;49.158;8.632;2022-08-07T10:45:47;0.32;;;0.30;;
19149;SDS011;9707;49.158;8.632;2022-08-07T10:50:42;1.60;;;0.45;;
19149;SDS011;9707;49.158;8.632;2022-08-07T10:58:59;0.85;;;0.40;;
19149;SDS011;9707;49.158;8.632;2022-08-07T11:01:38;0.73;;;0.40;;
19149;SDS011;9707;49.158;8.632;2022-08-07T11:04:14;0.40;;;0.30;;
19149;SDS011;9707;49.158;8.632;2022-08-07T11:09:27;0.28;;;0.28;;
19149;SDS011;9707;49.158;8.632;2022-08-07T11:12:00;0.63;;;0.30;;
19149;SDS011;9707;49.158;8.632;2022-08-07T11:14:38;1.95;;;0.50;;
19149;SDS011;9707;49.158;8.632;2022-08-07T11:17:12;0.38;;;0.30;;
19149;SDS011;9707;49.158;8.632;2022-08-07T11:22:32;1.50;;;0.70;;
19149;SDS011;9707;49.158;8.632;2022-08-07T11:27:33;2.22;;;0.65;;
19149;SDS011;9707;49.158;8.632;2022-08-07T11:30:19;0.47;;;0.30;;
19149;SDS011;9707;49.158;8.632;2022-08-07T11:33:05;1.63;;;0.60;;
19149;SDS011;9707;49.158;8.632;2022-08-07T11:35:33;0.90;;;0.32;;
19149;SDS011;9707;49.158;8.632;2022-08-07T11:40:48;2.15;;;0.30;;
19149;SDS011;9707;49.158;8.632;2022-08-07T12:08:45;0.50;;;0.40;;
19149;SDS011;9707;49.158;8.632;2022-08-07T12:11:21;0.60;;;0.50;;
19149;SDS011;9707;49.158;8.632;2022-08-07T12:16:45;1.88;;;0.52;;
19149;SDS011;9707;49.158;8.632;2022-08-07T12:25:08;1.00;;;0.35;;
19149;SDS011;9707;49.158;8.632;2022-08-07T12:28:04;2.42;;;0.55;;
19149;SDS011;9707;49.158;8.632;2022-08-07T12:30:39;0.40;;;0.38;;
19149;SDS011;9707;49.158;8.632;2022-08-07T12:33:14;0.40;;;0.40;;
19149;SDS011;9707;49.158;8.632;2022-08-07T12:35:49;0.82;;;0.30;;
19149;SDS011;9707;49.158;8.632;2022-08-07T12:38:16;0.70;;;0.40;;
19149;SDS011;9707;49.158;8.632;2022-08-07T12:40:43;3.33;;;0.50;;
19149;SDS011;9707;49.158;8.632;2022-08-07T12:43:11;0.60;;;0.30;;
19149;SDS011;9707;49.158;8.632;2022-08-07T12:46:03;0.30;;;0.30;;
19149;SDS011;9707;49.158;8.632;2022-08-07T12:51:24;1.20;;;0.40;;
19149;SDS011;9707;49.158;8.632;2022-08-07T12:53:56;1.50;;;0.50;;
19149;SDS011;9707;49.158;8.632;2022-08-07T12:56:35;0.63;;;0.50;;
19149;SDS011;9707;49.158;8.632;2022-08-07T12:59:03;2.83;;;0.38;;
19149;SDS011;9707;49.158;8.632;2022-08-07T13:01:37;0.63;;;0.32;;
19149;SDS011;9707;49.158;8.632;2022-08-07T13:12:27;3.30;;;0.55;;
19149;SDS011;9707;49.158;8.632;2022-08-07T13:17:50;1.05;;;0.50;;
19149;SDS011;9707;49.158;8.632;2022-08-07T13:23:38;1.30;;;0.40;;
19149;SDS011;9707;49.158;8.632;2022-08-07T13:26:42;0.30;;;0.30;;
19149;SDS011;9707;49.158;8.632;2022-08-07T13:29:14;1.13;;;0.40;;
19149;SDS011;9707;49.158;8.632;2022-08-07T13:31:47;0.20;;;0.20;;
19149;SDS011;9707;49.158;8.632;2022-08-07T13:34:39;0.30;;;0.30;;
19149;SDS011;9707;49.158;8.632;2022-08-07T13:37:24;1.23;;;0.50;;
19149;SDS011;9707;49.158;8.632;2022-08-07T13:40:01;0.98;;;0.35;;
19149;SDS011;9707;49.158;8.632;2022-08-07T13:42:37;0.60;;;0.32;;
19149;SDS011;9707;49.158;8.632;2022-08-07T13:45:04;1.30;;;0.43;;
19149;SDS011;9707;49.158;8.632;2022-08-07T13:47:36;2.38;;;0.50;;
19149;SDS011;9707;49.158;8.632;2022-08-07T13:50:03;0.60;;;0.50;;
19149;SDS011;9707;49.158;8.632;2022-08-07T13:52:32;0.60;;;0.30;;
19149;SDS011;9707;49.158;8.632;2022-08-07T13:55:04;0.63;;;0.50;;
19149;SDS011;9707;49.158;8.632;2022-08-07T13:57:35;0.70;;;0.38;;
19149;SDS011;9707;49.158;8.632;2022-08-07T14:00:05;0.77;;;0.50;;
19149;SDS011;9707;49.158;8.632;2022-08-07T14:02:33;0.57;;;0.40;;
19149;SDS011;9707;49.158;8.632;2022-08-07T14:05:05;0.68;;;0.47;;
19149;SDS011;9707;49.158;8.632;2022-08-07T14:07:37;1.48;;;0.40;;
19149;SDS011;9707;49.158;8.632;2022-08-07T14:10:06;0.52;;;0.40;;
19149;SDS011;9707;49.158;8.632;2022-08-07T14:12:47;2.05;;;0.50;;
19149;SDS011;9707;49.158;8.632;2022-08-07T14:15:33;0.52;;;0.32;;
19149;SDS011;9707;49.158;8.632;2022-08-07T14:18:23;0.50;;;0.43;;
19149;SDS011;9707;49.158;8.632;2022-08-07T14:21:06;0.47;;;0.30;;
19149;SDS011;9707;49.158;8.632;2022-08-07T14:23:35;1.88;;;0.40;;
19149;SDS011;9707;49.158;8.632;2022-08-07T14:26:09;1.30;;;0.60;;
19149;SDS011;9707;49.158;8.632;2022-08-07T14:28:38;1.45;;;0.30;;
19149;SDS011;9707;49.158;8.632;2022-08-07T14:31:05;0.95;;;0.43;;
19149;SDS011;9707;49.158;8.632;2022-08-07T14:33:31;0.80;;;0.40;;
19149;SDS011;9707;49.158;8.632;2022-08-07T14:35:59;0.82;;;0.35;;
19149;SDS011;9707;49.158;8.632;2022-08-07T14:38:26;1.48;;;0.65;;
19149;SDS011;9707;49.158;8.632;2022-08-07T14:40:54;0.40;;;0.40;;
19149;SDS011;9707;49.158;8.632;2022-08-07T14:43:21;1.85;;;0.60;;
19149;SDS011;9707;49.158;8.632;2022-08-07T14:45:54;0.75;;;0.40;;
19149;SDS011;9707;49.158;8.632;2022-08-07T14:48:31;2.05;;;0.50;;
19149;SDS011;9707;49.158;8.632;2022-08-07T14:51:00;1.35;;;0.50;;
19149;SDS011;9707;49.158;8.632;2022-08-07T14:53:30;1.05;;;0.38;;
19149;SDS011;9707;49.158;8.632;2022-08-07T14:56:03;0.47;;;0.30;;
19149;SDS011;9707;49.158;8.632;2022-08-07T14:58:32;0.68;;;0.20;;
19149;SDS011;9707;49.158;8.632;2022-08-07T15:01:04;0.75;;;0.30;;
19149;SDS011;9707;49.158;8.632;2022-08-07T15:03:30;0.40;;;0.30;;
19149;SDS011;9707;49.158;8.632;2022-08-07T15:05:58;0.35;;;0.25;;
19149;SDS011;9707;49.158;8.632;2022-08-07T15:08:26;2.05;;;0.80;;
19149;SDS011;9707;49.158;8.632;2022-08-07T15:11:08;0.68;;;0.38;;
19149;SDS011;9707;49.158;8.632;2022-08-07T15:13:36;0.30;;;0.20;;
19149;SDS011;9707;49.158;8.632;2022-08-07T15:16:12;0.88;;;0.30;;
19149;SDS011;9707;49.158;8.632;2022-08-07T15:18:44;0.73;;;0.30;;
19149;SDS011;9707;49.158;8.632;2022-08-07T15:21:18;0.65;;;0.30;;
19149;SDS011;9707;49.158;8.632;2022-08-07T15:23:47;1.65;;;0.60;;
19149;SDS011;9707;49.158;8.632;2022-08-07T15:26:15;0.98;;;0.40;;
19149;SDS011;9707;49.158;8.632;2022-08-07T15:28:43;2.38;;;0.52;;
19149;SDS011;9707;49.158;8.632;2022-08-07T15:31:10;0.75;;;0.32;;
19149;SDS011;9707;49.158;8.632;2022-08-07T15:33:39;2.42;;;0.45;;
19149;SDS011;9707;49.158;8.632;2022-08-07T15:36:06;1.17;;;0.45;;
19149;SDS011;9707;49.158;8.632;2022-08-07T15:38:34;2.10;;;0.43;;
19149;SDS011;9707;49.158;8.632;2022-08-07T15:41:10;0.45;;;0.22;;
19149;SDS011;9707;49.158;8.632;2022-08-07T15:43:41;2.88;;;0.60;;
19149;SDS011;9707;49.158;8.632;2022-08-07T15:46:19;0.77;;;0.40;;
19149;SDS011;9707;49.158;8.632;2022-08-07T15:48:47;0.22;;;0.22;;
19149;SDS011;9707;49.158;8.632;2022-08-07T15:51:14;1.05;;;0.30;;
19149;SDS011;9707;49.158;8.632;2022-08-07T15:53:44;0.90;;;0.30;;
19149;SDS011;9707;49.158;8.632;2022-08-07T15:56:13;1.08;;;0.50;;
19149;SDS011;9707;49.158;8.632;2022-08-07T16:01:11;0.77;;;0.30;;
19149;SDS011;9707;49.158;8.632;2022-08-07T16:03:40;2.63;;;0.50;;
19149;SDS011;9707;49.158;8.632;2022-08-07T16:06:09;1.33;;;0.57;;
19149;SDS011;9707;49.158;8.632;2022-08-07T16:08:38;0.50;;;0.40;;
19149;SDS011;9707;49.158;8.632;2022-08-07T16:11:21;2.38;;;0.90;;
19149;SDS011;9707;49.158;8.632;2022-08-07T16:16:32;0.73;;;0.52;;
19149;SDS011;9707;49.158;8.632;2022-08-07T16:19:13;0.40;;;0.30;;
19149;SDS011;9707;49.158;8.632;2022-08-07T16:24:31;1.15;;;0.73;;
19149;SDS011;9707;49.158;8.632;2022-08-07T16:27:10;0.47;;;0.32;;
19149;SDS011;9707;49.158;8.632;2022-08-07T16:32:28;0.98;;;0.40;;
19149;SDS011;9707;49.158;8.632;2022-08-07T16:35:07;1.08;;;0.40;;
19149;SDS011;9707;49.158;8.632;2022-08-07T17:00:08;1.85;;;1.27;;
19149;SDS011;9707;49.158;8.632;2022-08-07T17:07:56;0.68;;;0.40;;
19149;SDS011;9707;49.158;8.632;2022-08-07T17:21:28;2.55;;;0.60;;
19149;SDS011;9707;49.158;8.632;2022-08-07T17:26:50;0.55;;;0.40;;
19149;SDS011;9707;49.158;8.632;2022-08-07T17:32:04;1.08;;;0.65;;
19149;SDS011;9707;49.158;8.632;2022-08-07T17:34:48;0.85;;;0.50;;
19149;SDS011;9707;49.158;8.632;2022-08-07T17:37:23;2.35;;;0.40;;
19149;SDS011;9707;49.158;8.632;2022-08-07T17:43:09;0.47;;;0.40;;
19149;SDS011;9707;49.158;8.632;2022-08-07T17:45:16;1.65;;;0.50;;
19149;SDS011;9707;49.158;8.632;2022-08-07T17:50:17;0.93;;;0.40;;
19149;SDS011;9707;49.158;8.632;2022-08-07T17:55:34;1.48;;;0.40;;
19149;SDS011;9707;49.158;8.632;2022-08-07T17:58:08;0.52;;;0.30;;
19149;SDS011;9707;49.158;8.632;2022-08-07T18:00:41;2.25;;;0.35;;
19149;SDS011;9707;49.158;8.632;2022-08-07T18:03:12;0.98;;;0.68;;
19149;SDS011;9707;49.158;8.632;2022-08-07T18:05:52;0.70;;;0.47;;
19149;SDS011;9707;49.158;8.632;2022-08-07T18:11:06;1.35;;;0.63;;
19149;SDS011;9707;49.158;8.632;2022-08-07T18:16:16;2.33;;;1.73;;
19149;SDS011;9707;49.158;8.632;2022-08-07T18:18:51;2.00;;;1.20;;
19149;SDS011;9707;49.158;8.632;2022-08-07T18:21:38;2.65;;;1.48;;
19149;SDS011;9707;49.158;8.632;2022-08-07T18:34:28;1.42;;;1.10;;
19149;SDS011;9707;49.158;8.632;2022-08-07T18:37:19;1.40;;;1.00;;
19149;SDS011;9707;49.158;8.632;2022-08-07T18:45:53;4.05;;;2.60;;
19149;SDS011;9707;49.158;8.632;2022-08-07T18:48:22;4.70;;;1.60;;
19149;SDS011;9707;49.158;8.632;2022-08-07T18:56:31;0.90;;;0.70;;
19149;SDS011;9707;49.158;8.632;2022-08-07T19:01:43;0.40;;;0.40;;
19149;SDS011;9707;49.158;8.632;2022-08-07T19:04:18;0.82;;;0.50;;
19149;SDS011;9707;49.158;8.632;2022-08-07T19:06:56;2.00;;;0.43;;
19149;SDS011;9707;49.158;8.632;2022-08-07T19:12:18;0.95;;;0.50;;
19149;SDS011;9707;49.158;8.632;2022-08-07T19:17:18;1.15;;;0.70;;
19149;SDS011;9707;49.158;8.632;2022-08-07T19:19:57;0.55;;;0.50;;
19149;SDS011;9707;49.158;8.632;2022-08-07T19:22:39;1.58;;;0.70;;
19149;SDS011;9707;49.158;8.632;2022-08-07T19:25:17;0.80;;;0.40;;
19149;SDS011;9707;49.158;8.632;2022-08-07T19:27:43;1.38;;;0.40;;
19149;SDS011;9707;49.158;8.632;2022-08-07T19:30:11;5.13;;;0.90;;
19149;SDS011;9707;49.158;8.632;2022-08-07T19:32:39;1.27;;;0.50;;
19149;SDS011;9707;49.158;8.632;2022-08-07T19:35:25;0.98;;;0.50;;
19149;SDS011;9707;49.158;8.632;2022-08-07T19:37:54;1.35;;;0.43;;
19149;SDS011;9707;49.158;8.632;2022-08-07T19:40:22;3.33;;;0.60;;
19149;SDS011;9707;49.158;8.632;2022-08-07T19:42:50;0.38;;;0.35;;